Decoded Metar for K2W6 (CAPT DUKE RGNL in MD, USA) (IATA:2W6) | Meteo·Mobile Aviation Weather
aviador You're here:

K2W6 Decoded Metar

CAPT DUKE RGNL in MD, USA
Report Time2019-04-24 23:43:00
UTC Time2019-04-25 00:12:02
Flight Rules vfr VFR
WindCalm
Visibility9999 m
Phenomena:N/A
Clouds:N/A
Expected CloudBase > 2,800 ft AGL from Temp-Dew spread
CeilingNone
Temp18°C (ISA +3)
Dew Point11°C (64% RH)
QNH1011 hPa
Density Alt774 ft
Elevation144 ft
Report Wrong Elevation
Raw Report
K2W6 242343Z AUTO 00000KT 10SM CLR 18/11 A2986 RMK AO1=

Extra information for K2W6:More info

Metar Taf Metar & Taf Last 4 Metars F.Rules Stats Wind Profile Meteogram Temp Stats Airport Information Weather charts Add Link Nearby VenuesMetar ALERT Operation Metar Decoded Social comments

AIRNAV info for K2W6